Time;durP1;ratioP1;P1;durP2;ratioP2;P2;SDS_P1;SDS_P2;PMS_P1;PMS_P2;Temp;Humidity;BMP_temperature;BMP_pressure;BME280_temperature;BME280_humidity;BME280_pressure;Samples;Min_cycle;Max_cycle;Signal;HPM_P1;HPM_P2
2022/03/31 00:00:39;;;;;;;3.60;1.95;;;;;;;-1.15;40.47;100048.28;5025283;28;20021;-72
2022/03/31 00:03:07;;;;;;;3.05;1.30;;;;;;;-1.19;40.39;100041.31;5043521;28;20062;-72
2022/03/31 00:05:33;;;;;;;3.53;1.30;;;;;;;-1.16;40.55;100051.63;5043476;28;20417;-73
2022/03/31 00:08:07;;;;;;;6.28;1.30;;;;;;;-1.21;40.64;100040.38;5043553;28;20056;-72
2022/03/31 00:10:35;;;;;;;1.58;1.17;;;;;;;-1.17;40.37;100037.16;5043323;28;20026;-72
2022/03/31 00:13:02;;;;;;;7.45;1.40;;;;;;;-1.11;40.69;100047.53;5043474;28;20087;-72
2022/03/31 00:15:30;;;;;;;4.97;3.00;;;;;;;-1.07;40.47;100048.53;5043022;28;20037;-73
2022/03/31 00:17:57;;;;;;;3.53;1.20;;;;;;;-1.07;40.00;100048.53;5043624;28;20303;-72
2022/03/31 00:33:50;;;;;;;2.77;1.33;;;;;;;-1.28;40.31;100031.69;5043329;28;20029;-73
2022/03/31 00:36:15;;;;;;;2.17;1.08;;;;;;;-1.25;40.09;100047.09;5025555;28;20262;-73
2022/03/31 00:39:28;;;;;;;2.55;1.15;;;;;;;-1.31;40.23;100039.25;5043169;28;20075;-72
2022/03/31 00:41:27;;;;;;;2.65;1.38;;;;;;;-1.30;40.26;100048.59;5042494;28;20053;-72
2022/03/31 00:43:54;;;;;;;2.00;1.20;;;;;;;-1.37;40.21;100037.31;5043081;28;20085;-71
2022/03/31 00:46:23;;;;;;;1.52;1.13;;;;;;;-1.39;40.33;100041.53;5042942;28;20747;-73
2022/03/31 00:48:48;;;;;;;3.38;1.02;;;;;;;-1.37;40.18;100050.06;5042642;28;20026;-73
2022/03/31 00:51:14;;;;;;;3.65;1.08;;;;;;;-1.43;40.48;100042.22;5042593;28;20044;-72
2022/03/31 00:53:39;;;;;;;2.53;1.25;;;;;;;-1.43;40.51;100044.75;5042592;28;20045;-72
2022/03/31 00:56:06;;;;;;;1.90;1.10;;;;;;;-1.42;40.59;100057.53;5042602;28;20013;-74
2022/03/31 00:58:33;;;;;;;3.92;1.10;;;;;;;-1.49;40.75;100042.88;5042745;28;20021;-73
2022/03/31 01:00:59;;;;;;;2.53;1.25;;;;;;;-1.42;40.51;100043.97;5042280;28;20089;-73
2022/03/31 01:03:24;;;;;;;3.30;1.38;;;;;;;-1.41;40.47;100056.75;5024719;28;20041;-72
2022/03/31 01:05:51;;;;;;;5.63;2.42;;;;;;;-1.41;40.82;100046.56;5042521;28;20474;-71
2022/03/31 01:08:17;;;;;;;1.75;0.90;;;;;;;-1.41;40.78;100043.16;5042614;28;20026;-73
2022/03/31 01:10:46;;;;;;;1.25;0.82;;;;;;;-1.41;41.07;100045.69;5024887;28;20021;-72
2022/03/31 01:13:12;;;;;;;2.80;1.10;;;;;;;-1.33;41.18;100040.84;5042866;28;20021;-74
2022/03/31 01:15:38;;;;;;;7.68;1.20;;;;;;;-1.30;41.58;100041.84;5042233;28;20029;-73
2022/03/31 01:18:03;;;;;;;3.03;1.45;;;;;;;-1.25;41.32;100039.44;5042454;28;20028;-73
2022/03/31 01:20:29;;;;;;;1.65;1.00;;;;;;;-1.23;41.33;100039.50;5024359;28;20021;-72
2022/03/31 01:22:56;;;;;;;1.30;0.95;;;;;;;-1.26;41.57;100030.06;5042158;28;20017;-73
2022/03/31 01:25:21;;;;;;;2.13;1.30;;;;;;;-1.22;41.35;100036.13;5042396;28;20292;-74
2022/03/31 01:27:48;;;;;;;3.22;1.20;;;;;;;-1.28;41.48;100024.91;5042482;28;20573;-73
2022/03/31 01:30:16;;;;;;;2.35;1.85;;;;;;;-1.20;41.32;100037.06;5041943;28;20037;-72
2022/03/31 01:32:43;;;;;;;3.08;1.50;;;;;;;-1.20;41.44;100037.06;5046026;28;20026;-73
2022/03/31 01:35:09;;;;;;;2.60;1.30;;;;;;;-1.26;41.54;100027.50;5045835;28;20025;-73
2022/03/31 01:37:34;;;;;;;1.17;0.95;;;;;;;-1.24;41.49;100036.06;5045986;28;20032;-73
2022/03/31 01:40:00;;;;;;;2.08;1.20;;;;;;;-1.34;41.57;100031.50;5045958;28;20056;-72
2022/03/31 01:42:30;;;;;;;9.93;1.58;;;;;;;-1.38;41.61;100043.25;5045728;28;20042;-72
2022/03/31 01:44:56;;;;;;;3.58;1.48;;;;;;;-1.45;41.57;100046.41;5045520;28;20017;-70
2022/03/31 01:47:21;;;;;;;2.13;1.33;;;;;;;-1.54;41.88;100037.63;5027878;28;20108;-71
2022/03/31 01:49:47;;;;;;;2.72;1.35;;;;;;;-1.63;42.01;100040.69;5046022;28;20082;-71
2022/03/31 01:52:14;;;;;;;2.83;1.27;;;;;;;-1.73;42.14;100037.78;5046052;28;20050;-70
2022/03/31 01:54:39;;;;;;;2.70;1.17;;;;;;;-1.80;42.10;100039.22;5046115;28;20101;-72
2022/03/31 01:57:05;;;;;;;1.80;1.33;;;;;;;-1.89;42.13;100039.78;5027857;28;20029;-71
2022/03/31 01:59:38;;;;;;;2.08;1.20;;;;;;;-1.94;42.21;100043.81;5045763;28;20022;-70
2022/03/31 02:02:05;;;;;;;2.60;1.48;;;;;;;-2.01;42.52;100037.63;5045780;28;20032;-70
2022/03/31 02:04:30;;;;;;;2.53;1.20;;;;;;;-2.14;42.40;100026.16;5045801;28;20076;-70
2022/03/31 02:06:56;;;;;;;1.63;1.20;;;;;;;-2.14;42.62;100029.56;5045595;28;20040;-71
2022/03/31 02:09:21;;;;;;;2.60;1.48;;;;;;;-2.24;42.35;100023.25;5045577;28;20026;-71
2022/03/31 02:11:47;;;;;;;2.58;1.42;;;;;;;-2.31;42.51;100017.88;5045585;28;20022;-70
2022/03/31 02:14:13;;;;;;;2.45;1.23;;;;;;;-2.31;42.89;100020.41;5045216;28;20089;-69
2022/03/31 02:16:39;;;;;;;2.22;1.23;;;;;;;-2.27;43.04;100043.47;5045564;28;20429;-71
2022/03/31 02:19:05;;;;;;;2.67;1.20;;;;;;;-2.30;43.44;100039.97;5045498;28;20045;-70
2022/03/31 02:21:30;;;;;;;4.90;1.52;;;;;;;-2.30;43.40;100048.44;5045268;28;20021;-70
2022/03/31 02:23:56;;;;;;;2.05;1.20;;;;;;;-2.32;43.49;100047.53;5045425;28;20107;-70
2022/03/31 02:26:22;;;;;;;3.03;1.48;;;;;;;-2.33;43.44;100047.50;5045202;28;20025;-71
2022/03/31 02:28:47;;;;;;;3.88;1.50;;;;;;;-2.39;43.48;100037.94;5045450;28;20112;-70
2022/03/31 02:31:13;;;;;;;3.13;1.80;;;;;;;-2.44;43.63;100035.22;5044910;28;20025;-71
2022/03/31 02:33:38;;;;;;;4.45;1.88;;;;;;;-2.50;43.70;100030.78;5045454;28;20451;-72
2022/03/31 02:36:06;;;;;;;4.88;1.77;;;;;;;-2.46;43.69;100038.53;5045326;28;20032;-71
2022/03/31 02:38:31;;;;;;;9.23;1.90;;;;;;;-2.51;44.09;100041.72;5045187;28;20469;-71
2022/03/31 02:40:57;;;;;;;5.05;1.90;;;;;;;-2.55;43.91;100050.06;5045013;28;20031;-70
2022/03/31 02:43:22;;;;;;;4.80;1.98;;;;;;;-2.57;44.20;100036.41;5044917;28;20049;-71
2022/03/31 02:45:47;;;;;;;6.07;1.83;;;;;;;-2.60;44.37;100043.91;5044658;28;20099;-70
2022/03/31 02:48:13;;;;;;;4.32;1.90;;;;;;;-2.64;44.85;100044.63;5044911;28;20032;-70
2022/03/31 02:50:38;;;;;;;4.10;1.95;;;;;;;-2.62;46.15;100037.94;5044737;28;20052;-70
2022/03/31 02:55:48;;;;;;;3.80;1.88;;;;;;;-2.55;45.44;100034.81;5044866;28;20100;-70
2022/03/31 02:58:13;;;;;;;5.57;1.63;;;;;;;-2.63;46.30;100023.47;5044835;28;20029;-70
2022/03/31 03:00:38;;;;;;;6.85;1.60;;;;;;;-2.56;46.50;100025.44;5044443;28;20033;-70
2022/03/31 03:03:04;;;;;;;6.80;2.08;;;;;;;-2.46;46.50;100035.97;5044620;28;20033;-71
2022/03/31 03:05:31;;;;;;;3.33;1.65;;;;;;;-2.43;47.13;100025.91;5044499;28;20087;-71
2022/03/31 03:07:56;;;;;;;2.13;1.50;;;;;;;-2.45;46.67;100022.44;5044507;28;20018;-71
2022/03/31 03:10:22;;;;;;;4.72;1.80;;;;;;;-2.30;46.58;100035.75;5044523;28;20079;-71
2022/03/31 03:12:49;;;;;;;6.13;2.13;;;;;;;-2.25;47.25;100038.44;5044835;28;20052;-71
2022/03/31 03:15:16;;;;;;;4.80;1.70;;;;;;;-2.19;47.13;100032.75;5044278;28;20029;-71
2022/03/31 03:17:43;;;;;;;1.70;1.15;;;;;;;-2.14;47.86;100032.09;5044451;28;20076;-71
2022/03/31 03:20:13;;;;;;;5.88;1.75;;;;;;;-2.09;47.58;100028.88;5044302;28;20389;-70
2022/03/31 03:22:49;;;;;;;3.67;1.52;;;;;;;-2.01;47.26;100035.09;5044358;28;20032;-72
2022/03/31 03:25:16;;;;;;;5.47;2.00;;;;;;;-1.98;47.60;100035.19;5044124;28;20478;-71
2022/03/31 03:27:42;;;;;;;4.57;1.38;;;;;;;-1.97;47.31;100031.00;5026337;28;20508;-72
2022/03/31 03:30:09;;;;;;;2.92;1.23;;;;;;;-1.96;47.18;100027.63;5025884;28;20025;-70
2022/03/31 03:32:36;;;;;;;3.53;1.65;;;;;;;-1.94;47.31;100023.47;5044113;28;20033;-71
2022/03/31 03:35:03;;;;;;;1.80;1.30;;;;;;;-1.96;47.18;100017.44;5043997;28;20017;-71
2022/03/31 03:37:29;;;;;;;3.13;1.40;;;;;;;-1.88;47.17;100023.69;5044022;28;20055;-71
2022/03/31 03:39:54;;;;;;;4.45;1.40;;;;;;;-1.91;47.36;100021.03;5043970;28;20029;-71
2022/03/31 03:42:20;;;;;;;3.00;1.20;;;;;;;-1.87;47.29;100025.44;5043909;28;20049;-72
2022/03/31 03:44:45;;;;;;;5.32;1.63;;;;;;;-1.87;47.35;100028.00;5043602;28;20100;-71
2022/03/31 03:47:10;;;;;;;2.45;1.75;;;;;;;-1.86;47.31;100029.72;5043792;28;20033;-71
2022/03/31 03:49:36;;;;;;;1.80;1.23;;;;;;;-1.89;47.24;100032.16;5043810;28;20382;-71
2022/03/31 03:52:01;;;;;;;3.00;1.40;;;;;;;-1.93;47.42;100031.16;5043688;28;20056;-71
2022/03/31 03:54:27;;;;;;;4.30;1.40;;;;;;;-1.96;47.43;100028.50;5043232;28;20262;-72
2022/03/31 03:56:52;;;;;;;2.78;1.40;;;;;;;-2.01;47.46;100020.69;5043687;28;20021;-72
2022/03/31 03:59:18;;;;;;;9.20;1.27;;;;;;;-2.06;47.77;100026.44;5043245;28;20489;-70
2022/03/31 04:01:43;;;;;;;3.30;1.20;;;;;;;-2.07;48.02;100030.66;5043504;28;20021;-71
2022/03/31 04:04:08;;;;;;;2.55;1.58;;;;;;;-2.07;47.96;100022.16;5043585;28;20104;-71
2022/03/31 04:06:34;;;;;;;2.15;1.42;;;;;;;-2.08;47.88;100023.84;5044030;28;20044;-67
2022/03/31 04:08:59;;;;;;;4.32;1.58;;;;;;;-2.04;47.79;100030.78;5043500;28;20036;-67
2022/03/31 04:11:25;;;;;;;6.00;1.73;;;;;;;-2.06;47.77;100036.63;5043514;28;20028;-67
2022/03/31 04:13:50;;;;;;;3.17;1.55;;;;;;;-2.09;47.77;100026.34;5043362;28;20022;-67
2022/03/31 04:16:16;;;;;;;5.30;1.20;;;;;;;-2.10;47.79;100029.66;5043169;28;20040;-67
2022/03/31 04:18:42;;;;;;;4.15;1.48;;;;;;;-2.11;47.71;100028.81;5043229;28;20073;-68
2022/03/31 04:21:07;;;;;;;2.63;1.40;;;;;;;-2.17;47.59;100019.25;5043363;28;20040;-68
2022/03/31 04:23:32;;;;;;;3.05;1.73;;;;;;;-2.14;47.42;100026.16;5043143;28;20029;-68
2022/03/31 04:25:58;;;;;;;2.53;1.45;;;;;;;-2.17;47.71;100029.44;5043063;28;20029;-66
2022/03/31 04:28:23;;;;;;;2.80;1.33;;;;;;;-2.19;47.67;100025.97;5043263;28;20025;-68
2022/03/31 04:30:49;;;;;;;3.67;1.15;;;;;;;-2.20;47.47;100025.91;5042743;28;20032;-73
2022/03/31 04:33:14;;;;;;;4.72;2.17;;;;;;;-2.17;47.57;100026.06;5043180;28;20026;-73
2022/03/31 04:35:39;;;;;;;1.45;1.13;;;;;;;-2.20;47.59;100018.28;5043215;28;20021;-72
2022/03/31 04:38:08;;;;;;;2.72;1.48;;;;;;;-2.20;47.55;100026.78;5042889;28;20053;-72
2022/03/31 04:40:34;;;;;;;4.32;1.30;;;;;;;-2.19;47.55;100025.97;5042703;28;20013;-69
2022/03/31 04:42:59;;;;;;;3.13;1.25;;;;;;;-2.19;47.74;100027.66;5042557;28;20045;-71
2022/03/31 04:45:25;;;;;;;3.92;1.10;;;;;;;-2.24;47.50;100030.03;5042613;28;20088;-71
2022/03/31 04:47:51;;;;;;;5.95;1.65;;;;;;;-2.21;47.82;100036.91;5042967;28;20034;-71
2022/03/31 04:50:17;;;;;;;3.25;1.20;;;;;;;-2.21;48.39;100037.78;5042921;28;20051;-70
2022/03/31 04:52:42;;;;;;;4.35;1.45;;;;;;;-2.09;48.37;100039.06;5043084;28;20033;-70
2022/03/31 04:55:08;;;;;;;3.47;1.10;;;;;;;-1.87;48.41;100043.25;5043231;28;20018;-71
2022/03/31 04:57:34;;;;;;;2.30;1.02;;;;;;;-1.54;48.52;100037.63;5043151;28;20014;-71
2022/03/31 04:59:59;;;;;;;6.75;1.50;;;;;;;-1.23;48.23;100026.75;5024839;28;20087;-71
2022/03/31 05:02:25;;;;;;;12.95;4.05;;;;;;;-0.85;48.32;100034.81;5042829;28;20025;-70
2022/03/31 05:04:50;;;;;;;2.22;1.10;;;;;;;-0.55;48.08;100028.94;5043137;28;20029;-69
2022/03/31 05:07:16;;;;;;;3.60;1.30;;;;;;;-0.16;47.87;100036.88;5046027;28;20396;-71
2022/03/31 05:09:41;;;;;;;3.65;1.27;;;;;;;0.17;47.77;100030.13;5047008;28;20089;-70
2022/03/31 05:12:08;;;;;;;3.63;1.10;;;;;;;0.49;47.34;100014.84;5046748;28;20021;-70
2022/03/31 05:14:33;;;;;;;5.40;1.42;;;;;;;0.90;47.40;100026.94;5046513;28;20025;-69
2022/03/31 05:16:59;;;;;;;3.42;1.30;;;;;;;1.38;47.00;100039.13;5046850;28;20353;-71
2022/03/31 05:19:25;;;;;;;5.85;1.25;;;;;;;1.91;46.87;100032.63;5046691;28;20079;-71
2022/03/31 05:21:50;;;;;;;1.90;1.20;;;;;;;2.56;47.08;100036.44;5046418;28;20021;-71
2022/03/31 05:24:16;;;;;;;4.07;1.55;;;;;;;3.14;46.65;100032.31;5046773;28;20021;-70
2022/03/31 05:26:42;;;;;;;3.55;1.45;;;;;;;3.70;45.68;100038.28;5046578;28;20022;-70
2022/03/31 05:29:07;;;;;;;3.10;1.58;;;;;;;4.07;44.86;100037.03;5046498;28;20033;-70
2022/03/31 05:31:33;;;;;;;8.48;1.70;;;;;;;4.40;43.89;100037.38;5046256;28;20025;-71
2022/03/31 05:33:58;;;;;;;8.85;1.73;;;;;;;4.95;43.36;100047.34;5046560;28;20112;-70
2022/03/31 05:36:23;;;;;;;4.38;1.73;;;;;;;5.31;43.00;100052.81;5046520;28;20022;-71
2022/03/31 05:38:49;;;;;;;3.92;1.55;;;;;;;5.73;42.12;100056.50;5028178;28;20026;-71
2022/03/31 05:41:14;;;;;;;4.13;1.77;;;;;;;6.05;41.16;100048.13;5045896;28;20485;-71
2022/03/31 05:43:40;;;;;;;1.77;1.13;;;;;;;6.47;40.41;100052.56;5027994;28;20032;-73
2022/03/31 05:46:05;;;;;;;10.15;1.92;;;;;;;6.94;40.33;100051.78;5028157;28;20018;-72
2022/03/31 05:48:30;;;;;;;5.30;1.60;;;;;;;7.21;38.63;100061.25;5046270;28;20021;-69
2022/03/31 05:50:56;;;;;;;5.28;1.55;;;;;;;7.08;38.37;100048.34;5046054;28;20033;-70
2022/03/31 05:53:21;;;;;;;7.65;1.70;;;;;;;7.36;38.32;100050.94;5028312;28;20029;-71
2022/03/31 05:55:47;;;;;;;8.68;1.75;;;;;;;7.59;38.02;100057.78;5028096;28;20021;-70
2022/03/31 05:58:13;;;;;;;6.70;2.35;;;;;;;7.59;36.96;100055.19;5028262;28;20052;-70
2022/03/31 06:00:39;;;;;;;4.50;2.03;;;;;;;7.75;37.08;100063.78;5045550;28;20025;-72
2022/03/31 06:03:06;;;;;;;6.57;2.22;;;;;;;7.94;36.43;100067.16;5046068;28;20032;-72
2022/03/31 06:05:32;;;;;;;8.75;2.25;;;;;;;7.76;36.26;100070.69;5028197;28;20025;-71
2022/03/31 06:07:57;;;;;;;24.92;3.42;;;;;;;8.25;36.99;100068.78;5046261;28;20044;-72
2022/03/31 06:10:22;;;;;;;18.38;3.22;;;;;;;8.67;36.24;100067.75;5045423;28;20028;-72
2022/03/31 06:12:48;;;;;;;16.98;2.90;;;;;;;9.28;35.38;100075.09;5027538;28;20544;-72
2022/03/31 06:15:15;;;;;;;12.15;3.15;;;;;;;9.66;34.68;100066.06;5027002;28;20014;-71
2022/03/31 06:17:43;;;;;;;15.07;3.00;;;;;;;9.92;33.85;100066.66;5044833;28;20052;-71
2022/03/31 06:20:10;;;;;;;22.38;3.30;;;;;;;10.32;33.25;100080.91;5027233;28;20096;-71
2022/03/31 06:22:36;;;;;;;14.55;3.35;;;;;;;10.89;33.01;100068.06;5045078;28;20017;-73
2022/03/31 06:25:01;;;;;;;13.63;2.60;;;;;;;11.07;32.22;100076.47;5044995;28;20029;-71
2022/03/31 06:27:27;;;;;;;13.23;2.15;;;;;;;10.85;30.59;100079.38;5045002;28;20030;-71
2022/03/31 06:29:53;;;;;;;8.43;1.92;;;;;;;10.83;31.10;100084.56;5044727;28;20116;-72
2022/03/31 06:32:19;;;;;;;11.32;2.45;;;;;;;10.72;30.61;100083.91;5045083;28;20036;-72
2022/03/31 06:34:44;;;;;;;11.48;2.75;;;;;;;10.66;30.29;100090.88;5045046;28;20111;-72
2022/03/31 06:37:10;;;;;;;5.80;1.58;;;;;;;11.10;30.01;100081.59;5044831;28;20051;-73
2022/03/31 06:39:36;;;;;;;2.92;1.02;;;;;;;11.17;28.08;100077.19;5044895;28;20025;-72
2022/03/31 06:42:02;;;;;;;9.57;1.65;;;;;;;10.84;28.48;100083.72;5044657;28;20037;-72
2022/03/31 06:44:28;;;;;;;5.07;1.33;;;;;;;10.45;28.82;100086.81;5044635;28;20021;-71
2022/03/31 06:46:53;;;;;;;9.32;1.70;;;;;;;10.16;29.18;100081.09;5026749;28;20339;-71
2022/03/31 06:49:20;;;;;;;6.32;1.65;;;;;;;10.25;29.12;100094.84;5044308;28;20029;-71
2022/03/31 06:51:46;;;;;;;4.45;1.95;;;;;;;10.11;29.10;100095.00;5044180;28;20037;-71
2022/03/31 06:54:11;;;;;;;11.23;1.83;;;;;;;10.13;29.21;100094.13;5044121;28;20025;-71
2022/03/31 06:56:37;;;;;;;5.45;1.50;;;;;;;10.36;28.83;100100.78;5044352;28;20009;-71
2022/03/31 06:59:03;;;;;;;9.30;1.90;;;;;;;10.47;28.59;100102.38;5044267;28;20440;-71
2022/03/31 07:01:29;;;;;;;6.30;1.63;;;;;;;10.91;28.42;100098.31;5043571;28;20113;-70
2022/03/31 07:03:55;;;;;;;3.47;1.40;;;;;;;11.33;27.48;100086.41;5044106;28;20048;-72
2022/03/31 07:06:22;;;;;;;3.78;1.58;;;;;;;11.27;26.99;100107.31;5026032;28;20029;-71
2022/03/31 07:08:47;;;;;;;7.03;1.20;;;;;;;11.23;27.08;100103.91;5043814;28;20029;-70
2022/03/31 07:11:13;;;;;;;7.45;1.70;;;;;;;11.52;26.66;100093.88;5043774;28;20028;-70
2022/03/31 07:13:39;;;;;;;7.80;1.95;;;;;;;11.42;25.77;100108.81;5044001;28;20068;-72
2022/03/31 07:16:05;;;;;;;10.93;2.53;;;;;;;11.17;26.47;100111.78;5043686;28;20013;-71
2022/03/31 07:18:31;;;;;;;10.05;2.00;;;;;;;11.48;26.60;100102.63;5044057;28;20415;-72
2022/03/31 07:20:59;;;;;;;16.30;3.28;;;;;;;11.90;26.52;100094.09;5043751;28;20025;-72
2022/03/31 07:23:26;;;;;;;6.32;1.70;;;;;;;12.29;25.85;100092.50;5025777;28;20099;-72
2022/03/31 07:25:53;;;;;;;6.13;1.85;;;;;;;12.70;25.71;100100.31;5025896;28;20393;-73
2022/03/31 07:28:19;;;;;;;8.52;1.92;;;;;;;12.79;24.75;100105.31;5043177;28;20044;-72
2022/03/31 07:30:45;;;;;;;11.43;3.00;;;;;;;12.68;24.99;100102.09;5043202;28;20259;-73
2022/03/31 07:33:10;;;;;;;8.48;2.60;;;;;;;12.80;25.21;100109.63;5043680;28;20085;-71
2022/03/31 07:35:41;;;;;;;8.90;1.83;;;;;;;13.22;24.20;100102.59;5043355;28;20382;-72
2022/03/31 07:38:10;;;;;;;5.70;1.90;;;;;;;13.42;23.48;100098.66;5043568;28;20418;-71
2022/03/31 07:40:37;;;;;;;5.82;1.50;;;;;;;13.07;23.29;100104.69;5043263;28;20033;-71
2022/03/31 07:43:04;;;;;;;9.00;1.88;;;;;;;12.55;23.50;100106.72;5043477;28;20068;-72
2022/03/31 07:45:30;;;;;;;11.43;2.33;;;;;;;12.65;24.03;100108.25;5042924;28;20115;-72
2022/03/31 07:47:55;;;;;;;7.28;1.75;;;;;;;12.97;24.29;100100.59;5043270;28;20049;-73
2022/03/31 07:50:22;;;;;;;6.95;1.92;;;;;;;13.45;23.59;100102.03;5025550;28;20029;-73
2022/03/31 07:52:48;;;;;;;8.23;1.85;;;;;;;13.42;23.47;100109.09;5042946;28;20056;-73
2022/03/31 07:55:16;;;;;;;9.43;2.10;;;;;;;13.42;23.58;100101.25;5025093;28;20032;-71
2022/03/31 07:57:41;;;;;;;7.20;2.17;;;;;;;13.74;23.37;100097.84;5025221;28;20462;-72
2022/03/31 08:00:11;;;;;;;6.88;1.60;;;;;;;13.61;22.59;100094.69;5024870;28;20028;-72
2022/03/31 08:02:41;;;;;;;5.28;1.42;;;;;;;13.36;23.05;100112.69;5043134;28;20028;-73
2022/03/31 08:05:09;;;;;;;8.52;1.80;;;;;;;13.28;23.45;100115.47;5043386;28;20021;-73
2022/03/31 08:07:35;;;;;;;3.35;2.15;;;;;;;13.36;23.17;100108.34;5043114;28;20024;-73
2022/03/31 08:10:00;;;;;;;3.63;1.30;;;;;;;13.47;23.29;100101.97;5025344;28;20022;-73
2022/03/31 08:12:26;;;;;;;9.70;1.45;;;;;;;13.68;23.02;100112.78;5024863;28;20017;-74
2022/03/31 08:14:51;;;;;;;4.63;1.48;;;;;;;13.78;23.11;100111.66;5042849;28;20496;-73
2022/03/31 08:17:17;;;;;;;5.38;1.85;;;;;;;13.87;22.80;100113.16;5042838;28;20017;-74
2022/03/31 08:19:43;;;;;;;5.57;2.00;;;;;;;13.86;22.57;100109.72;5042750;28;20025;-74
2022/03/31 08:22:08;;;;;;;5.03;2.80;;;;;;;13.83;22.20;100111.53;5042795;28;20083;-74
2022/03/31 08:24:34;;;;;;;5.18;1.42;;;;;;;13.75;22.25;100107.38;5025004;28;20029;-74
2022/03/31 08:26:59;;;;;;;3.17;1.30;;;;;;;13.78;21.35;100116.88;5042637;28;20048;-73
2022/03/31 08:29:27;;;;;;;8.50;1.42;;;;;;;13.54;21.66;100108.81;5042579;28;20022;-73
2022/03/31 08:31:54;;;;;;;4.35;1.10;;;;;;;13.45;20.73;100111.63;5042610;28;20021;-73
2022/03/31 08:34:20;;;;;;;3.90;1.08;;;;;;;12.83;21.23;100114.78;5042593;28;20033;-73
2022/03/31 08:36:45;;;;;;;5.50;1.15;;;;;;;12.71;21.56;100113.31;5042703;28;20053;-73
2022/03/31 08:39:11;;;;;;;2.80;1.45;;;;;;;12.91;21.42;100124.19;5042680;28;20021;-73
2022/03/31 08:41:36;;;;;;;4.72;1.25;;;;;;;13.31;20.90;100112.78;5042251;28;20049;-71
2022/03/31 08:44:02;;;;;;;1.70;1.00;;;;;;;13.72;20.43;100114.44;5042466;28;20105;-73
2022/03/31 08:46:34;;;;;;;2.92;1.10;;;;;;;13.96;20.43;100114.69;5024270;28;20348;-72
2022/03/31 08:49:00;;;;;;;3.85;1.10;;;;;;;14.23;19.12;100120.88;5024824;28;20028;-72
2022/03/31 08:51:26;;;;;;;4.68;1.20;;;;;;;14.20;19.40;100114.91;5042328;28;20029;-73
2022/03/31 08:53:51;;;;;;;8.38;1.48;;;;;;;14.49;19.35;100123.63;5042548;28;20052;-72
2022/03/31 08:56:16;;;;;;;6.22;1.30;;;;;;;14.81;19.28;100111.38;5042963;28;20025;-72
2022/03/31 08:58:43;;;;;;;5.70;1.17;;;;;;;14.92;18.25;100125.91;5042712;28;20037;-71
2022/03/31 09:01:14;;;;;;;4.18;1.30;;;;;;;14.63;18.74;100126.69;5041886;28;20025;-72
2022/03/31 09:03:40;;;;;;;2.95;0.80;;;;;;;14.56;18.22;100119.94;5042304;28;20089;-72
2022/03/31 09:06:07;;;;;;;3.72;1.60;;;;;;;14.29;18.60;100117.25;5042220;28;20101;-72
2022/03/31 09:08:34;;;;;;;8.23;2.65;;;;;;;14.10;18.40;100122.13;5042250;28;20026;-72
2022/03/31 09:11:00;;;;;;;5.20;1.10;;;;;;;13.87;18.83;100121.84;5024336;28;20112;-71
2022/03/31 09:13:29;;;;;;;2.92;1.00;;;;;;;13.53;18.43;100114.88;5042069;28;20030;-72
2022/03/31 09:16:01;;;;;;;1.55;0.73;;;;;;;13.75;19.01;100123.00;5023947;28;20521;-71
2022/03/31 09:18:28;;;;;;;4.90;0.95;;;;;;;14.40;18.09;100118.66;5042452;28;20025;-73
2022/03/31 09:20:56;;;;;;;5.40;1.20;;;;;;;14.47;17.93;100125.44;5042070;28;20140;-71
2022/03/31 09:23:24;;;;;;;4.00;1.75;;;;;;;14.33;17.71;100124.06;5042264;28;20100;-71
2022/03/31 09:25:51;;;;;;;2.50;0.60;;;;;;;14.33;17.80;100123.25;5042275;28;20085;-72
2022/03/31 09:28:24;;;;;;;1.58;0.70;;;;;;;14.58;17.82;100127.72;5024532;28;20120;-72
2022/03/31 09:30:55;;;;;;;1.42;0.77;;;;;;;14.79;17.58;100133.22;5041814;28;20052;-71
2022/03/31 09:33:24;;;;;;;4.63;0.90;;;;;;;14.90;17.69;100127.69;5042176;28;20025;-72
2022/03/31 09:36:00;;;;;;;4.00;0.60;;;;;;;14.97;17.45;100123.97;5042093;28;20028;-71
2022/03/31 09:38:25;;;;;;;1.30;0.70;;;;;;;14.94;17.70;100118.84;5042114;28;20032;-72
2022/03/31 09:40:52;;;;;;;3.08;0.88;;;;;;;15.27;17.87;100116.03;5041973;28;20076;-71
2022/03/31 09:43:17;;;;;;;3.75;0.98;;;;;;;15.53;17.42;100122.16;5041966;28;20087;-72
2022/03/31 09:45:43;;;;;;;2.78;0.90;;;;;;;15.72;16.92;100122.41;5041497;28;20029;-70
2022/03/31 09:48:21;;;;;;;3.65;1.00;;;;;;;14.96;17.14;100128.34;5042064;28;20048;-72
2022/03/31 09:50:47;;;;;;;4.07;0.93;;;;;;;14.59;17.22;100130.31;5042002;28;20029;-72
2022/03/31 09:53:13;;;;;;;1.58;0.73;;;;;;;14.04;17.19;100133.56;5027028;28;20025;-70
2022/03/31 09:55:43;;;;;;;6.32;1.40;;;;;;;13.72;17.74;100125.72;5045913;28;20186;-72
2022/03/31 09:58:14;;;;;;;5.68;1.33;;;;;;;14.38;18.36;100127.41;5045933;28;20049;-72
2022/03/31 10:00:40;;;;;;;3.75;0.85;;;;;;;15.24;17.55;100119.63;5027358;28;20113;-72
2022/03/31 10:03:06;;;;;;;2.38;1.00;;;;;;;15.81;17.21;100121.25;5045413;28;20030;-72
2022/03/31 10:05:33;;;;;;;3.53;0.90;;;;;;;16.55;16.94;100122.09;5027792;28;20089;-71
2022/03/31 10:07:59;;;;;;;6.10;1.13;;;;;;;16.68;15.44;100122.47;5045349;28;20130;-73
2022/03/31 10:10:27;;;;;;;2.95;0.75;;;;;;;16.11;15.62;100112.38;5045237;28;20117;-72
2022/03/31 10:13:02;;;;;;;1.88;0.70;;;;;;;15.29;16.13;100116.84;5045337;28;20037;-72
2022/03/31 10:15:33;;;;;;;2.83;0.77;;;;;;;15.08;16.37;100121.88;5044928;28;20020;-72
2022/03/31 10:17:59;;;;;;;3.67;0.70;;;;;;;15.41;16.26;100107.75;5045221;28;20025;-71
2022/03/31 10:20:25;;;;;;;0.55;0.50;;;;;;;14.48;15.92;100121.91;5044873;28;20104;-71
2022/03/31 10:25:42;;;;;;;2.22;0.70;;;;;;;13.29;17.24;100113.75;5045135;28;20036;-73
2022/03/31 10:28:11;;;;;;;2.38;0.60;;;;;;;12.94;17.17;100098.91;5027106;28;20053;-73
2022/03/31 10:30:37;;;;;;;3.95;0.70;;;;;;;12.89;17.85;100122.44;5044693;28;20113;-73
2022/03/31 10:33:04;;;;;;;2.38;0.70;;;;;;;13.27;17.68;100119.00;5044757;28;20017;-71
2022/03/31 10:35:37;;;;;;;2.47;1.02;;;;;;;13.67;17.08;100108.47;5044861;28;20040;-71
2022/03/31 10:38:17;;;;;;;1.40;0.75;;;;;;;13.77;16.80;100112.53;5044749;28;20031;-71
2022/03/31 10:40:45;;;;;;;1.15;0.77;;;;;;;13.48;17.27;100106.31;5044727;28;20067;-71
2022/03/31 10:43:20;;;;;;;2.17;0.90;;;;;;;13.34;17.35;100127.53;5044317;28;20077;-72
2022/03/31 10:45:46;;;;;;;1.52;0.73;;;;;;;13.06;17.32;100126.44;5044273;28;20041;-71
2022/03/31 10:48:20;;;;;;;1.83;0.70;;;;;;;12.89;17.19;100117.25;5044390;28;20025;-72
2022/03/31 10:50:59;;;;;;;1.95;0.55;;;;;;;13.14;17.23;100108.88;5044919;28;20048;-72
2022/03/31 10:53:28;;;;;;;0.68;0.55;;;;;;;13.00;16.63;100108.34;5044722;28;20045;-71
2022/03/31 10:55:55;;;;;;;3.10;0.68;;;;;;;13.43;16.95;100105.56;5044761;28;20056;-73
2022/03/31 10:58:28;;;;;;;4.95;0.70;;;;;;;14.15;16.46;100111.53;5044527;28;20017;-72
2022/03/31 11:01:00;;;;;;;2.17;0.68;;;;;;;14.43;16.29;100118.56;5043948;28;20025;-72
2022/03/31 11:03:26;;;;;;;1.15;0.63;;;;;;;14.46;16.62;100118.50;5043164;28;20029;-73
2022/03/31 11:05:53;;;;;;;1.88;0.70;;;;;;;14.90;16.42;100110.25;5044119;28;20026;-72
2022/03/31 11:08:18;;;;;;;1.33;0.70;;;;;;;15.26;16.15;100103.88;5044175;28;20041;-73
2022/03/31 11:10:47;;;;;;;3.40;0.70;;;;;;;15.43;15.51;100099.84;5026531;28;20105;-74
2022/03/31 11:13:15;;;;;;;7.07;1.42;;;;;;;14.65;15.32;100108.34;5043971;28;20508;-72
2022/03/31 11:15:41;;;;;;;1.52;0.60;;;;;;;13.79;16.02;100102.94;5043949;28;20113;-74
2022/03/31 11:18:07;;;;;;;1.25;0.60;;;;;;;13.95;16.30;100112.94;5043903;28;20022;-73
2022/03/31 11:20:33;;;;;;;0.98;0.60;;;;;;;14.49;15.75;100118.41;5043768;28;20031;-72
2022/03/31 11:23:09;;;;;;;1.20;0.50;;;;;;;14.91;15.96;100103.25;5026097;28;20022;-71
2022/03/31 11:25:35;;;;;;;1.25;0.70;;;;;;;15.56;15.08;100102.91;5044006;28;20103;-72
2022/03/31 11:28:12;;;;;;;2.60;0.70;;;;;;;14.03;15.68;100103.16;5044081;28;20025;-73
2022/03/31 11:30:38;;;;;;;1.02;0.50;;;;;;;12.65;16.25;100103.03;5025911;28;20017;-73
2022/03/31 11:33:04;;;;;;;4.18;0.70;;;;;;;11.46;17.35;100105.25;5043820;28;20369;-73
2022/03/31 11:35:31;;;;;;;2.00;0.68;;;;;;;10.53;17.64;100110.09;5043912;28;20349;-72
2022/03/31 11:38:10;;;;;;;1.90;0.60;;;;;;;9.78;18.55;100114.38;5043710;28;20021;-72
2022/03/31 11:40:40;;;;;;;1.13;0.55;;;;;;;9.19;19.07;100107.09;5043821;28;20475;-73
2022/03/31 11:43:08;;;;;;;2.55;0.70;;;;;;;8.77;19.50;100105.63;5025696;28;20060;-72